Terminal Aerodrome Forecast
Issued by NWS

Home | Current Version | Previous Version | Text Only | Print | Product List | Glossary On
Versions: 1 2 3 4 5 6 7 8 9 10 11 12 13
000
FTUS44 KOUN 091722
TAFWWR
TAF
KWWR 091722Z 0918/1018 18016G22KT P6SM OVC030
     FM092300 17010KT P6SM SCT030
      TEMPO 1012/1015 OVC020
     FM101500 18015G21KT P6SM SCT030=

USA.gov is the U.S. government's official web portal to all federal, state and local government web resources and services.